Time;durP1;ratioP1;P1;durP2;ratioP2;P2;SDS_P1;SDS_P2;PMS_P1;PMS_P2;Temp;Humidity;BMP_temperature;BMP_pressure;BME280_temperature;BME280_humidity;BME280_pressure;Samples;Min_cycle;Max_cycle;Signal;HPM_P1;HPM_P2
2022/04/19 00:00:28;;;;;;;16.20;8.73;;;;;;;9.05;40.75;99948.81;5032263;28;20037;-72
2022/04/19 00:02:55;;;;;;;16.95;10.27;;;;;;;9.06;40.91;99938.25;5033466;28;20040;-72
2022/04/19 00:05:20;;;;;;;15.23;9.13;;;;;;;9.05;41.00;99936.66;5015678;28;20037;-71
2022/04/19 00:07:54;;;;;;;17.08;9.95;;;;;;;9.09;40.79;99942.97;5033218;28;20156;-72
2022/04/19 00:10:20;;;;;;;13.48;8.32;;;;;;;9.10;40.97;99950.22;5015491;28;20116;-71
2022/04/19 00:12:47;;;;;;;15.68;7.78;;;;;;;9.13;41.03;99949.25;5033321;28;20026;-73
2022/04/19 00:15:13;;;;;;;12.63;8.30;;;;;;;9.14;40.44;99942.31;5032229;28;20037;-71
2022/04/19 00:17:38;;;;;;;12.77;7.28;;;;;;;9.19;40.42;99941.66;5015493;28;20026;-72
2022/04/19 00:20:06;;;;;;;15.25;8.25;;;;;;;9.20;40.76;99943.25;5015534;28;20478;-73
2022/04/19 00:22:32;;;;;;;13.50;7.15;;;;;;;9.22;40.22;99943.56;5033144;28;20032;-72
2022/04/19 00:24:59;;;;;;;11.55;6.45;;;;;;;9.23;39.86;99942.28;5031732;28;20045;-72
2022/04/19 00:27:26;;;;;;;9.13;6.00;;;;;;;9.27;39.71;99939.28;5032205;28;20108;-73
2022/04/19 00:29:53;;;;;;;11.07;5.60;;;;;;;9.23;39.88;99927.28;5032331;28;20041;-72
2022/04/19 00:32:21;;;;;;;11.32;5.82;;;;;;;9.27;39.65;99923.03;5033064;28;20385;-73
2022/04/19 00:34:46;;;;;;;10.25;6.50;;;;;;;9.31;39.58;99928.53;5045743;28;20201;-73
2022/04/19 00:37:37;;;;;;;12.25;6.57;;;;;;;9.32;39.66;99927.28;5035101;28;20462;-73
2022/04/19 00:40:05;;;;;;;14.77;6.88;;;;;;;9.34;39.53;99919.81;5035915;28;20025;-72
2022/04/19 00:42:31;;;;;;;12.90;7.22;;;;;;;9.34;39.66;99919.81;5018734;28;20083;-72
2022/04/19 00:45:05;;;;;;;14.00;6.70;;;;;;;9.32;40.25;99907.38;5018464;28;20035;-72
2022/04/19 00:47:40;;;;;;;12.38;6.60;;;;;;;9.34;40.05;99899.94;5034940;28;20028;-73
2022/04/19 00:50:07;;;;;;;10.85;6.93;;;;;;;9.34;39.88;99899.94;5018345;28;20037;-73
2022/04/19 00:52:37;;;;;;;11.90;7.05;;;;;;;9.31;40.13;99900.91;5052658;28;20119;-73
2022/04/19 00:55:05;;;;;;;11.43;7.13;;;;;;;9.30;39.78;99896.47;5018541;28;20035;-72
2022/04/19 00:57:32;;;;;;;14.15;6.82;;;;;;;9.29;39.90;99897.75;5038096;28;20025;-72
2022/04/19 00:59:58;;;;;;;15.02;6.53;;;;;;;9.05;40.53;99869.28;5038512;28;20462;-72
2022/04/19 01:02:25;;;;;;;12.10;6.97;;;;;;;9.20;40.59;99905.53;5038294;28;20025;-72
2022/04/19 01:04:55;;;;;;;13.13;7.18;;;;;;;9.05;40.67;99888.38;5038674;28;20032;-72
2022/04/19 01:07:20;;;;;;;11.00;6.03;;;;;;;9.10;40.79;99899.88;5039073;28;20382;-72
2022/04/19 01:09:47;;;;;;;10.60;5.97;;;;;;;9.02;41.24;99897.88;5056142;28;20029;-72
2022/04/19 01:15:06;;;;;;;12.73;6.65;;;;;;;8.87;41.86;99899.81;5026940;28;20044;-72
2022/04/19 01:17:34;;;;;;;12.10;6.90;;;;;;;8.84;41.02;99901.53;5038315;28;20040;-72
2022/04/19 01:20:01;;;;;;;16.73;8.05;;;;;;;8.79;41.32;99895.69;5021358;28;20037;-72
2022/04/19 01:22:27;;;;;;;14.73;6.68;;;;;;;8.72;42.58;99896.06;5021692;28;20033;-72
2022/04/19 01:24:54;;;;;;;10.63;6.32;;;;;;;8.61;42.16;99888.81;5038138;28;20037;-72
2022/04/19 01:27:22;;;;;;;11.93;7.20;;;;;;;8.61;41.44;99902.22;5038009;28;20040;-72
2022/04/19 01:29:51;;;;;;;14.02;6.47;;;;;;;8.54;42.42;99896.84;5038103;28;20027;-72
2022/04/19 01:32:17;;;;;;;11.88;5.53;;;;;;;8.50;42.20;99896.22;5020961;28;20044;-72
2022/04/19 01:34:44;;;;;;;13.15;5.97;;;;;;;8.45;42.55;99891.97;5036815;28;20048;-73
2022/04/19 01:37:14;;;;;;;13.02;6.15;;;;;;;8.44;41.93;99892.44;5054229;28;20492;-71
2022/04/19 01:42:35;;;;;;;10.32;6.22;;;;;;;8.37;42.61;99867.25;5054493;28;20051;-72
2022/04/19 01:45:02;;;;;;;12.98;6.32;;;;;;;8.36;42.77;99874.97;5036038;28;20482;-71
2022/04/19 01:47:29;;;;;;;11.63;6.68;;;;;;;8.35;42.66;99873.38;5054474;28;20031;-72
2022/04/19 01:49:56;;;;;;;12.85;6.85;;;;;;;8.36;43.18;99868.50;5037546;28;20029;-73
2022/04/19 01:52:23;;;;;;;14.38;7.15;;;;;;;8.28;43.00;99864.41;5037505;28;20495;-72
2022/04/19 01:54:49;;;;;;;10.57;5.82;;;;;;;8.36;42.83;99880.66;5055340;28;20108;-72
2022/04/19 01:57:15;;;;;;;14.30;6.47;;;;;;;8.36;42.90;99882.69;5036771;28;20508;-73
2022/04/19 01:59:41;;;;;;;9.93;6.38;;;;;;;8.36;43.31;99882.69;5055398;28;20021;-72
2022/04/19 02:02:07;;;;;;;11.63;6.78;;;;;;;8.36;42.97;99886.31;5055315;28;20535;-73
2022/04/19 02:04:33;;;;;;;11.45;6.78;;;;;;;8.33;43.13;99878.78;5037070;28;20041;-72
2022/04/19 02:07:03;;;;;;;12.95;6.10;;;;;;;8.35;43.59;99881.91;5054657;28;20029;-72
2022/04/19 02:09:29;;;;;;;12.82;6.28;;;;;;;8.35;43.44;99870.56;5036875;28;20040;-73
2022/04/19 02:11:56;;;;;;;14.57;7.35;;;;;;;8.31;43.68;99871.97;5055068;28;20039;-72
2022/04/19 02:14:23;;;;;;;14.65;6.90;;;;;;;8.28;43.40;99878.59;5036732;28;20084;-73
2022/04/19 02:16:52;;;;;;;12.30;6.75;;;;;;;8.21;43.39;99874.00;5055023;28;20039;-73
2022/04/19 02:19:18;;;;;;;10.10;6.28;;;;;;;8.26;43.80;99879.03;5037303;28;20081;-71
2022/04/19 02:21:45;;;;;;;12.07;6.55;;;;;;;8.24;43.89;99875.88;5037079;28;20386;-72
2022/04/19 02:24:10;;;;;;;14.57;6.65;;;;;;;8.25;43.39;99874.63;5054941;28;20474;-72
2022/04/19 02:26:37;;;;;;;11.70;6.63;;;;;;;8.26;43.33;99873.38;5035045;28;20048;-72
2022/04/19 02:29:03;;;;;;;13.30;6.32;;;;;;;8.23;43.46;99860.94;5036743;28;20359;-72
2022/04/19 02:31:30;;;;;;;10.43;6.05;;;;;;;8.23;43.87;99863.78;5053160;28;20040;-72
2022/04/19 02:33:58;;;;;;;11.15;5.95;;;;;;;8.20;43.51;99861.88;5019771;28;20052;-72
2022/04/19 02:36:25;;;;;;;10.88;5.78;;;;;;;8.18;43.88;99855.91;5037008;28;20064;-72
2022/04/19 02:38:52;;;;;;;11.43;5.93;;;;;;;8.16;43.85;99868.97;5036830;28;20132;-72
2022/04/19 02:41:19;;;;;;;11.65;5.90;;;;;;;8.14;43.46;99857.31;5036442;28;20037;-72
2022/04/19 02:43:46;;;;;;;11.07;5.97;;;;;;;8.11;43.55;99852.56;5036756;28;20454;-72
2022/04/19 02:46:13;;;;;;;9.32;5.78;;;;;;;8.08;43.79;99845.03;5036578;28;20033;-72
2022/04/19 02:48:40;;;;;;;10.10;6.07;;;;;;;8.07;43.69;99844.22;5036333;28;20028;-73
2022/04/19 02:51:05;;;;;;;9.43;5.13;;;;;;;8.01;43.94;99848.94;5036618;28;20036;-72
2022/04/19 02:53:36;;;;;;;9.80;5.65;;;;;;;8.01;44.22;99851.78;5054030;28;20036;-73
2022/04/19 02:56:04;;;;;;;11.40;6.37;;;;;;;7.98;44.22;99855.59;5037196;28;20037;-73
2022/04/19 02:58:30;;;;;;;10.73;5.60;;;;;;;7.92;44.39;99859.50;5003425;28;20345;-72
2022/04/19 03:00:59;;;;;;;9.45;5.65;;;;;;;7.86;44.34;99864.22;5035797;28;20065;-72
2022/04/19 03:03:29;;;;;;;11.23;6.03;;;;;;;7.76;44.80;99860.59;5053825;28;20158;-72
2022/04/19 03:05:57;;;;;;;9.20;5.05;;;;;;;7.69;45.03;99855.25;5036962;28;20146;-72
2022/04/19 03:08:27;;;;;;;11.13;5.20;;;;;;;7.65;44.76;99857.41;5036491;28;20029;-73
2022/04/19 03:10:55;;;;;;;12.25;5.22;;;;;;;7.60;45.06;99850.34;5052690;28;20083;-72
2022/04/19 03:13:22;;;;;;;8.27;5.38;;;;;;;7.55;45.42;99855.84;5053688;28;20467;-73
2022/04/19 03:15:48;;;;;;;8.10;5.28;;;;;;;7.50;45.41;99856.47;5035882;28;20544;-73
2022/04/19 03:18:14;;;;;;;8.65;5.32;;;;;;;7.44;45.51;99853.47;5036315;28;20390;-72
2022/04/19 03:20:43;;;;;;;9.77;5.38;;;;;;;7.35;45.13;99839.28;5053733;28;20477;-73
2022/04/19 03:28:40;;;;;;;10.07;5.78;;;;;;;7.37;45.53;99831.88;5038908;28;20083;-72
2022/04/19 03:31:07;;;;;;;12.32;5.95;;;;;;;7.38;45.06;99839.13;5036025;28;20033;-74
2022/04/19 03:33:36;;;;;;;12.43;5.38;;;;;;;7.38;45.65;99833.47;5052848;28;20051;-72
2022/04/19 03:36:02;;;;;;;9.82;5.97;;;;;;;7.37;45.07;99833.94;5036094;28;20025;-73
2022/04/19 03:38:27;;;;;;;8.57;4.90;;;;;;;7.36;45.12;99833.13;5019410;28;20025;-73
2022/04/19 03:40:54;;;;;;;7.35;4.40;;;;;;;7.36;45.48;99832.34;5050838;28;20547;-73
2022/04/19 03:43:20;;;;;;;6.78;4.63;;;;;;;7.37;45.51;99831.88;5035503;28;20021;-73
2022/04/19 03:45:46;;;;;;;9.82;5.10;;;;;;;7.32;45.69;99831.72;5035591;28;20033;-74
2022/04/19 03:48:15;;;;;;;11.55;5.05;;;;;;;7.32;44.95;99831.72;5053449;28;20029;-73
2022/04/19 03:50:42;;;;;;;9.90;4.40;;;;;;;7.30;45.32;99829.34;5053525;28;20055;-73
2022/04/19 03:53:08;;;;;;;10.30;5.13;;;;;;;7.31;45.40;99832.97;5052733;28;20048;-74
2022/04/19 03:55:33;;;;;;;11.73;5.25;;;;;;;7.30;45.35;99829.34;5035320;28;20021;-74
2022/04/19 03:58:02;;;;;;;11.68;5.63;;;;;;;7.26;45.82;99827.91;5053310;28;20465;-73
2022/04/19 04:00:29;;;;;;;9.60;5.85;;;;;;;7.20;45.27;99836.22;5019115;28;20064;-73
2022/04/19 04:02:55;;;;;;;11.02;5.65;;;;;;;7.15;46.34;99836.88;5035295;28;20390;-73
2022/04/19 04:05:24;;;;;;;8.25;4.80;;;;;;;7.12;45.74;99831.34;5035360;28;20039;-73
2022/04/19 04:08:11;;;;;;;6.72;4.95;;;;;;;7.10;45.90;99839.53;5035682;28;20526;-73
2022/04/19 04:10:38;;;;;;;8.35;4.40;;;;;;;7.05;45.62;99837.31;5035166;28;20056;-72
2022/04/19 04:13:04;;;;;;;10.68;4.70;;;;;;;7.02;45.30;99836.19;5035559;28;20029;-73
2022/04/19 04:15:30;;;;;;;10.60;4.93;;;;;;;7.03;45.47;99845.47;5034995;28;20115;-72
2022/04/19 04:17:55;;;;;;;6.45;4.40;;;;;;;7.03;45.64;99843.44;5035268;28;20035;-73
2022/04/19 04:20:23;;;;;;;10.32;5.25;;;;;;;6.99;45.30;99842.00;5035134;28;20024;-73
2022/04/19 04:22:49;;;;;;;8.75;4.75;;;;;;;6.91;45.98;99827.31;5052996;28;20079;-73
2022/04/19 04:25:15;;;;;;;10.05;4.38;;;;;;;7.03;45.71;99836.97;5053243;28;20021;-73
2022/04/19 04:27:40;;;;;;;9.65;4.60;;;;;;;7.07;45.28;99841.22;5035178;28;20051;-73
2022/04/19 04:30:06;;;;;;;7.05;3.83;;;;;;;7.11;45.28;99835.41;5052940;28;20037;-73
2022/04/19 04:32:32;;;;;;;8.93;4.72;;;;;;;7.15;45.33;99836.88;5021624;28;20385;-73
2022/04/19 04:34:58;;;;;;;9.75;5.03;;;;;;;7.20;45.00;99839.06;5038763;28;20060;-73
2022/04/19 04:37:23;;;;;;;11.93;4.80;;;;;;;7.24;45.19;99830.44;5038818;28;20025;-72
2022/04/19 04:39:49;;;;;;;5.88;4.13;;;;;;;7.31;44.87;99858.47;5022372;28;20410;-73
2022/04/19 04:42:15;;;;;;;9.13;4.78;;;;;;;7.33;44.59;99847.47;5055673;28;20033;-72
2022/04/19 04:44:42;;;;;;;7.90;4.75;;;;;;;7.33;45.04;99855.97;5056873;28;20024;-72
2022/04/19 04:49:52;;;;;;;7.75;4.53;;;;;;;7.38;44.85;99850.47;5041546;28;20071;-74
2022/04/19 04:52:19;;;;;;;10.73;4.97;;;;;;;7.45;44.53;99845.75;5038657;28;20020;-73
2022/04/19 04:54:44;;;;;;;8.38;4.72;;;;;;;7.50;44.43;99854.41;5054134;28;20182;-73
2022/04/19 04:57:10;;;;;;;8.02;5.20;;;;;;;7.52;44.84;99853.94;5021645;28;20427;-73
2022/04/19 04:59:36;;;;;;;11.20;5.03;;;;;;;7.55;44.39;99850.19;5021873;28;20031;-73
2022/04/19 05:02:03;;;;;;;8.75;4.50;;;;;;;7.58;44.46;99847.19;5021654;28;20112;-72
2022/04/19 05:04:29;;;;;;;9.02;5.85;;;;;;;7.62;44.18;99845.00;5025770;28;20492;-72
2022/04/19 05:06:55;;;;;;;8.75;5.35;;;;;;;7.67;44.38;99840.75;5067838;28;20021;-73
2022/04/19 05:09:21;;;;;;;11.20;5.25;;;;;;;7.74;44.19;99838.41;5038120;28;20043;-72
2022/04/19 05:11:50;;;;;;;11.25;5.97;;;;;;;7.81;44.22;99832.41;5054979;28;20029;-73
2022/04/19 05:14:16;;;;;;;11.77;4.78;;;;;;;7.87;43.43;99841.06;5039008;28;20029;-73
2022/04/19 05:16:42;;;;;;;9.80;5.63;;;;;;;7.93;43.62;99832.75;5040823;28;20024;-73
2022/04/19 05:19:09;;;;;;;9.70;4.95;;;;;;;8.01;43.59;99833.97;5076025;28;20021;-73
2022/04/19 05:21:37;;;;;;;10.15;5.57;;;;;;;8.04;43.42;99833.81;5041276;28;20036;-72
2022/04/19 05:24:07;;;;;;;9.80;5.05;;;;;;;8.03;43.31;99834.31;5041967;28;20500;-73
2022/04/19 05:26:33;;;;;;;10.00;5.75;;;;;;;8.03;43.07;99842.81;5038298;28;20040;-72
2022/04/19 05:28:58;;;;;;;15.25;6.18;;;;;;;8.08;43.23;99842.19;5037273;28;20035;-72
2022/04/19 05:31:25;;;;;;;13.32;5.03;;;;;;;8.16;43.01;99837.75;5036264;28;20029;-73
2022/04/19 05:33:50;;;;;;;12.18;5.00;;;;;;;8.16;42.58;99832.88;5055511;28;20041;-78
2022/04/19 05:36:16;;;;;;;11.43;4.70;;;;;;;8.50;42.48;99853.66;5037707;28;20055;-78
2022/04/19 05:38:43;;;;;;;10.95;4.65;;;;;;;8.66;42.56;99847.63;5020974;28;20017;-79
2022/04/19 05:41:09;;;;;;;10.35;5.10;;;;;;;8.77;42.32;99867.81;5004386;28;20481;-79
2022/04/19 05:43:44;;;;;;;13.85;5.30;;;;;;;8.79;41.49;99864.47;5037046;28;20040;-79
2022/04/19 05:46:09;;;;;;;10.25;4.95;;;;;;;8.64;41.64;99870.81;5055448;28;20079;-78
2022/04/19 05:48:35;;;;;;;12.93;5.40;;;;;;;8.55;42.73;99884.25;5037156;28;20034;-78
2022/04/19 05:51:02;;;;;;;10.73;4.82;;;;;;;8.38;42.58;99886.66;5043123;28;20078;-73
2022/04/19 05:53:28;;;;;;;24.73;5.82;;;;;;;8.18;43.11;99889.16;5056994;28;20038;-75
2022/04/19 05:55:54;;;;;;;11.90;4.95;;;;;;;7.99;43.54;99887.56;5043961;28;20016;-78
2022/04/19 05:58:19;;;;;;;12.77;5.05;;;;;;;7.80;47.38;99903.75;5040523;28;20179;-75
2022/04/19 06:00:44;;;;;;;10.13;4.50;;;;;;;7.61;50.31;99893.63;5031822;28;20139;-76
2022/04/19 06:05:54;;;;;;;7.93;4.25;;;;;;;7.38;54.21;99878.78;5054326;28;20458;-77
2022/04/19 06:08:19;;;;;;;9.80;4.55;;;;;;;7.29;55.29;99863.81;5068345;28;20099;-75
2022/04/19 06:10:45;;;;;;;8.32;4.63;;;;;;;7.36;56.67;99863.50;5073476;28;20511;-77
2022/04/19 06:13:11;;;;;;;6.70;3.85;;;;;;;7.47;55.85;99846.84;5074361;28;20021;-75
2022/04/19 06:15:44;;;;;;;7.57;4.43;;;;;;;7.72;56.46;99852.25;5070891;28;20040;-77
2022/04/19 06:18:10;;;;;;;6.15;4.47;;;;;;;7.89;56.04;99843.44;5076532;28;20102;-80
2022/04/19 06:20:35;;;;;;;8.27;5.22;;;;;;;7.97;56.12;99822.81;5076164;28;20495;-80
2022/04/19 06:23:00;;;;;;;10.75;7.22;;;;;;;8.25;55.78;99843.41;5075706;28;20454;-79
2022/04/19 06:25:27;;;;;;;8.38;5.13;;;;;;;8.45;56.18;99846.56;5060657;28;20032;-81
2022/04/19 06:27:58;;;;;;;14.02;5.10;;;;;;;8.62;56.93;99847.03;5046654;28;20382;-73
2022/04/19 06:30:24;;;;;;;8.38;4.80;;;;;;;8.84;56.12;99838.25;5036066;28;20041;-75
2022/04/19 06:32:50;;;;;;;6.93;4.03;;;;;;;9.02;55.28;99841.06;5035438;28;20047;-74
2022/04/19 06:35:18;;;;;;;5.13;3.58;;;;;;;9.17;56.05;99829.78;5052206;28;20555;-73
2022/04/19 06:37:44;;;;;;;7.53;3.65;;;;;;;9.54;55.75;99826.22;5035811;28;20087;-74
2022/04/19 06:40:11;;;;;;;7.00;3.60;;;;;;;10.41;54.35;99826.94;5034905;28;20104;-76
2022/04/19 06:42:36;;;;;;;5.00;3.47;;;;;;;11.45;51.51;99831.22;5019576;28;20041;-73
2022/04/19 06:45:02;;;;;;;5.90;2.85;;;;;;;12.49;48.46;99824.47;5053846;28;20078;-73
2022/04/19 06:47:27;;;;;;;4.35;2.78;;;;;;;13.51;45.65;99821.97;5054930;28;20100;-73
2022/04/19 06:49:57;;;;;;;11.27;3.25;;;;;;;14.30;43.62;99821.00;5057828;28;20071;-73
2022/04/19 06:52:23;;;;;;;21.92;4.13;;;;;;;15.32;42.03;99816.38;5054969;28;20031;-74
2022/04/19 06:54:50;;;;;;;5.05;3.33;;;;;;;15.68;40.62;99825.22;5055076;28;20071;-73
2022/04/19 06:57:15;;;;;;;5.22;3.17;;;;;;;15.74;39.35;99811.63;5071168;28;20029;-74
2022/04/19 06:59:41;;;;;;;4.68;3.30;;;;;;;16.18;38.01;99822.16;5055547;28;20041;-75
2022/04/19 07:02:07;;;;;;;6.88;3.78;;;;;;;16.49;37.60;99818.03;5055334;28;20039;-74
2022/04/19 07:04:32;;;;;;;6.15;3.53;;;;;;;16.36;37.18;99822.31;5061426;28;20033;-76
2022/04/19 07:06:58;;;;;;;7.68;4.60;;;;;;;16.01;37.09;99836.59;5055567;28;20070;-74
2022/04/19 07:09:23;;;;;;;7.03;4.20;;;;;;;15.75;38.52;99836.94;5055627;28;20035;-72
2022/04/19 07:11:48;;;;;;;6.93;4.07;;;;;;;16.78;37.90;99823.09;5073497;28;20041;-75
2022/04/19 07:14:14;;;;;;;6.53;4.25;;;;;;;17.62;35.80;99823.16;5073604;28;20432;-78
2022/04/19 07:16:39;;;;;;;6.47;3.70;;;;;;;17.92;34.72;99815.22;5055215;28;20424;-80
2022/04/19 07:19:04;;;;;;;4.10;3.70;;;;;;;17.87;33.98;99810.31;5055293;28;20094;-77
2022/04/19 07:27:00;;;;;;;6.75;3.90;;;;;;;17.42;33.83;99814.97;5063212;28;20058;-80
2022/04/19 07:29:25;;;;;;;6.15;3.63;;;;;;;16.73;34.94;99829.69;5041469;28;20645;-85
2022/04/19 07:31:52;;;;;;;9.32;4.50;;;;;;;16.32;35.90;99826.78;5039919;28;20515;-83
2022/04/19 07:34:17;;;;;;;6.75;4.47;;;;;;;15.49;37.46;99836.47;5039338;28;20041;-80
2022/04/19 07:36:45;;;;;;;8.73;4.35;;;;;;;15.24;37.25;99834.66;5060051;28;20036;-83
2022/04/19 07:39:11;;;;;;;8.60;4.88;;;;;;;15.50;37.13;99817.91;5076501;28;20385;-84
2022/04/19 07:41:37;;;;;;;11.35;5.10;;;;;;;15.89;36.97;99823.56;5056690;28;20062;-86
2022/04/19 07:44:08;;;;;;;5.93;4.20;;;;;;;15.80;36.62;99826.72;5041433;28;20039;-78
2022/04/19 07:46:34;;;;;;;5.10;4.05;;;;;;;15.28;37.41;99833.09;5038955;28;20428;-74
2022/04/19 07:49:00;;;;;;;7.78;4.63;;;;;;;14.24;38.61;99838.94;5072967;28;20021;-75
2022/04/19 07:51:25;;;;;;;11.23;6.28;;;;;;;13.61;39.96;99840.50;5055037;28;20032;-76
2022/04/19 07:53:51;;;;;;;7.10;4.32;;;;;;;13.66;41.16;99834.03;5055252;28;20037;-79
2022/04/19 07:56:16;;;;;;;7.68;5.00;;;;;;;14.30;40.58;99826.72;5054835;28;20462;-76
2022/04/19 07:58:47;;;;;;;5.97;4.10;;;;;;;15.09;38.30;99841.47;5072916;28;20116;-79
2022/04/19 08:01:12;;;;;;;7.28;4.50;;;;;;;15.87;35.64;99815.50;5055590;28;20027;-79
2022/04/19 08:03:38;;;;;;;16.05;4.60;;;;;;;15.86;35.84;99830.38;5055576;28;20024;-76
2022/04/19 08:06:03;;;;;;;7.57;5.30;;;;;;;15.34;36.29;99830.97;5073609;28;20047;-78
2022/04/19 08:08:29;;;;;;;8.15;3.53;;;;;;;14.48;37.29;99832.78;5059010;28;20029;-77
2022/04/19 08:10:55;;;;;;;9.30;4.97;;;;;;;13.77;38.83;99829.13;5059078;28;20032;-79
2022/04/19 08:13:20;;;;;;;8.68;6.40;;;;;;;13.18;40.17;99842.53;5058181;28;20062;-75
2022/04/19 08:15:46;;;;;;;13.43;7.57;;;;;;;12.60;41.50;99843.81;5077440;28;20025;-78
2022/04/19 08:18:14;;;;;;;10.57;5.95;;;;;;;12.27;42.41;99847.91;5058193;28;20145;-74
2022/04/19 08:20:40;;;;;;;9.52;5.68;;;;;;;11.84;43.35;99846.09;5059038;28;20531;-77
2022/04/19 08:23:07;;;;;;;12.60;6.38;;;;;;;11.54;44.60;99856.78;5058843;28;20032;-75
2022/04/19 08:25:36;;;;;;;12.75;6.97;;;;;;;11.24;45.10;99856.88;5075067;28;20024;-73
2022/04/19 08:28:03;;;;;;;9.93;6.38;;;;;;;11.02;45.46;99867.13;5058623;28;20028;-74
2022/04/19 08:30:29;;;;;;;13.90;5.85;;;;;;;10.73;45.80;99865.06;5058300;28;20036;-74
2022/04/19 08:32:55;;;;;;;12.73;6.57;;;;;;;10.75;46.85;99866.16;5058940;28;20028;-74
2022/04/19 08:35:20;;;;;;;8.85;6.90;;;;;;;10.91;46.00;99873.41;5075454;28;20119;-76
2022/04/19 08:37:46;;;;;;;9.93;6.80;;;;;;;11.09;46.08;99873.22;5058508;28;20043;-76
2022/04/19 08:40:12;;;;;;;10.95;7.13;;;;;;;11.18;45.75;99867.41;5041893;28;20024;-75
2022/04/19 08:42:39;;;;;;;9.13;7.70;;;;;;;11.30;45.87;99870.44;5076259;28;20024;-74
2022/04/19 08:45:07;;;;;;;9.80;6.78;;;;;;;11.32;45.61;99874.34;5056049;28;20459;-73
2022/04/19 08:47:45;;;;;;;10.15;7.18;;;;;;;11.16;45.88;99884.19;5051221;28;20043;-74
2022/04/19 08:50:12;;;;;;;12.35;6.47;;;;;;;11.23;46.31;99880.97;5071052;28;20052;-74
2022/04/19 08:52:39;;;;;;;8.75;6.82;;;;;;;11.51;45.73;99881.38;5071660;28;20025;-76
2022/04/19 08:57:50;;;;;;;8.88;6.80;;;;;;;12.28;43.80;99877.25;5041016;28;20086;-76
2022/04/19 09:00:17;;;;;;;12.80;7.72;;;;;;;12.19;43.65;99891.66;5060423;28;20033;-76
2022/04/19 09:02:43;;;;;;;8.20;6.95;;;;;;;11.81;44.37;99899.22;5056700;28;20461;-77
2022/04/19 09:05:23;;;;;;;14.90;8.63;;;;;;;11.42;45.71;99892.13;5075652;28;20053;-78
2022/04/19 09:07:51;;;;;;;12.68;7.20;;;;;;;11.31;45.46;99887.03;5075468;28;20484;-82
2022/04/19 09:10:31;;;;;;;8.65;7.53;;;;;;;11.23;46.06;99903.75;5061786;28;20032;-78
2022/04/19 09:13:04;;;;;;;10.77;7.90;;;;;;;11.05;46.38;99903.19;5061001;28;20027;-73
2022/04/19 09:15:39;;;;;;;11.68;8.07;;;;;;;11.10;46.48;99908.97;5095989;28;20076;-74
2022/04/19 09:18:06;;;;;;;11.55;7.72;;;;;;;10.91;46.25;99887.66;5077332;28;20028;-79
2022/04/19 09:20:32;;;;;;;9.20;6.63;;;;;;;10.96;46.83;99908.97;5076472;28;20067;-83
2022/04/19 09:23:10;;;;;;;11.65;6.45;;;;;;;11.11;46.81;99910.53;5058841;28;20029;-78
2022/04/19 09:25:36;;;;;;;9.20;6.43;;;;;;;11.22;46.58;99913.59;5077231;28;20066;-85
2022/04/19 09:28:04;;;;;;;11.52;7.45;;;;;;;11.30;46.36;99918.91;5061567;28;20029;-75
2022/04/19 09:30:32;;;;;;;9.43;6.40;;;;;;;11.06;46.53;99925.50;5057659;28;20033;-82
2022/04/19 09:32:59;;;;;;;10.43;6.82;;;;;;;10.97;47.74;99933.34;5041292;28;20032;-83
2022/04/19 09:35:32;;;;;;;9.63;6.47;;;;;;;10.64;48.73;99924.97;5057087;28;20076;-75
2022/04/19 09:37:59;;;;;;;10.15;6.43;;;;;;;10.43;48.95;99923.28;5057289;28;20035;-76
2022/04/19 09:40:36;;;;;;;12.90;7.43;;;;;;;10.09;50.74;99925.41;5057290;28;20025;-76
2022/04/19 09:43:21;;;;;;;9.85;7.40;;;;;;;9.72;53.22;99932.63;5057238;28;20024;-77
2022/04/19 09:45:56;;;;;;;12.98;6.55;;;;;;;9.61;52.90;99940.88;5056380;28;20063;-75
2022/04/19 09:48:30;;;;;;;9.18;6.25;;;;;;;9.85;53.62;99933.94;5074330;28;20462;-77
2022/04/19 09:50:58;;;;;;;10.45;7.30;;;;;;;10.16;52.36;99932.81;5040389;28;20430;-75
2022/04/19 09:53:45;;;;;;;9.65;7.05;;;;;;;10.30;51.82;99937.78;5074674;28;20052;-76
2022/04/19 09:56:13;;;;;;;9.70;6.80;;;;;;;10.24;52.19;99942.56;5055806;28;20031;-76
2022/04/19 09:58:39;;;;;;;7.10;5.65;;;;;;;10.35;50.66;99948.50;5040047;28;20028;-75
2022/04/19 10:01:05;;;;;;;7.18;5.43;;;;;;;10.47;49.83;99943.78;5073018;28;20028;-77
2022/04/19 10:09:02;;;;;;;13.18;8.77;;;;;;;10.62;49.31;99936.84;5074760;28;20048;-75
2022/04/19 10:11:28;;;;;;;10.60;7.28;;;;;;;10.68;49.29;99952.00;5048135;28;20029;-76
2022/04/19 10:13:55;;;;;;;9.32;6.07;;;;;;;10.86;48.73;99951.03;5036582;28;20035;-78
2022/04/19 10:16:21;;;;;;;12.43;6.97;;;;;;;11.05;48.83;99960.19;5036736;28;20075;-75
2022/04/19 10:18:46;;;;;;;12.45;7.70;;;;;;;11.38;47.55;99955.06;5036545;28;20390;-75
2022/04/19 10:21:20;;;;;;;10.23;7.75;;;;;;;11.68;46.95;99947.25;5053345;28;20042;-76
2022/04/19 10:23:46;;;;;;;11.10;8.93;;;;;;;11.58;46.73;99940.88;5039916;28;20082;-76
2022/04/19 10:26:17;;;;;;;7.93;6.78;;;;;;;11.60;47.04;99951.78;5056370;28;20444;-74
2022/04/19 10:28:45;;;;;;;9.38;6.80;;;;;;;11.52;47.04;99954.25;5073396;28;20058;-77
2022/04/19 10:31:11;;;;;;;5.90;5.20;;;;;;;11.62;46.83;99940.66;5057162;28;20024;-75
2022/04/19 10:33:49;;;;;;;10.45;5.85;;;;;;;12.06;45.84;99957.69;5039569;28;20028;-74
2022/04/19 10:36:22;;;;;;;7.07;5.45;;;;;;;12.34;45.71;99950.25;5055933;28;20033;-74
2022/04/19 10:39:13;;;;;;;8.57;6.35;;;;;;;12.10;45.35;99952.53;5073996;28;20045;-76
2022/04/19 10:41:55;;;;;;;9.07;6.50;;;;;;;12.42;45.74;99947.78;5073962;28;20032;-80
2022/04/19 10:44:23;;;;;;;10.85;6.18;;;;;;;12.19;44.75;99957.31;5057015;28;20081;-80
2022/04/19 10:47:03;;;;;;;8.73;6.47;;;;;;;11.88;46.23;99961.59;5039497;28;20029;-77
2022/04/19 10:49:31;;;;;;;10.13;6.90;;;;;;;11.96;45.63;99971.28;5056394;28;20059;-75
2022/04/19 10:52:00;;;;;;;10.70;7.60;;;;;;;11.99;45.63;99969.50;5055945;28;20050;-80
2022/04/19 10:55:01;;;;;;;12.20;7.60;;;;;;;11.87;45.07;99980.00;5054469;28;20028;-81
2022/04/19 10:58:06;;;;;;;9.95;7.30;;;;;;;11.57;45.12;99972.75;5056573;28;20465;-81
2022/04/19 11:00:34;;;;;;;7.25;6.15;;;;;;;11.57;44.99;99969.88;5049702;28;20044;-83
2022/04/19 11:03:10;;;;;;;7.70;6.40;;;;;;;11.49;45.02;99966.66;5067153;28;20036;-74
2022/04/19 11:05:50;;;;;;;10.25;7.20;;;;;;;11.84;44.54;99946.72;5035863;28;20024;-76
2022/04/19 11:08:24;;;;;;;7.45;6.15;;;;;;;12.29;43.57;99968.09;5053698;28;20029;-77
2022/04/19 11:10:51;;;;;;;11.65;7.35;;;;;;;11.98;44.19;99971.59;5053455;28;20033;-74
2022/04/19 11:13:20;;;;;;;13.55;8.98;;;;;;;11.66;44.49;99959.16;5035766;28;20044;-76
2022/04/19 11:16:04;;;;;;;14.20;8.75;;;;;;;11.51;44.79;99978.34;5034824;28;20065;-77
2022/04/19 11:18:34;;;;;;;8.75;7.38;;;;;;;11.32;45.01;99979.06;5051435;28;20044;-76
2022/04/19 11:21:04;;;;;;;14.23;7.97;;;;;;;11.46;44.60;99978.25;5048674;28;20435;-75
2022/04/19 11:23:41;;;;;;;11.82;7.70;;;;;;;11.52;44.84;99985.63;5053580;28;20426;-75
2022/04/19 11:26:09;;;;;;;16.92;8.02;;;;;;;11.23;45.57;99988.50;5036740;28;20037;-76
2022/04/19 11:28:35;;;;;;;15.73;6.70;;;;;;;10.97;46.61;99993.97;5053917;28;20028;-75
2022/04/19 11:31:00;;;;;;;8.82;6.40;;;;;;;11.14;46.85;99985.75;5053326;28;20030;-76
2022/04/19 11:33:33;;;;;;;9.82;7.82;;;;;;;11.47;46.55;99980.63;5071139;28;20024;-78
2022/04/19 11:36:18;;;;;;;8.35;6.50;;;;;;;11.92;44.60;99978.50;5054155;28;20035;-78
2022/04/19 11:38:48;;;;;;;20.38;6.82;;;;;;;11.84;44.07;99975.25;5037388;28;20381;-76
2022/04/19 11:46:45;;;;;;;14.65;8.25;;;;;;;11.62;44.52;99980.59;5058436;28;20564;-75
2022/04/19 11:49:19;;;;;;;9.63;7.63;;;;;;;11.63;45.28;99990.75;5054885;28;20040;-76
2022/04/19 11:51:45;;;;;;;12.98;7.95;;;;;;;11.92;44.80;99996.41;5055805;28;20465;-86
2022/04/19 11:54:33;;;;;;;8.05;6.13;;;;;;;12.25;43.84;99989.59;5071354;28;20028;-76
2022/04/19 11:57:04;;;;;;;10.35;7.25;;;;;;;12.23;43.88;99989.31;5037966;28;20027;-81
2022/04/19 11:59:52;;;;;;;14.83;7.33;;;;;;;12.01;44.45;99995.50;5055994;28;20032;-80
2022/04/19 12:02:19;;;;;;;10.32;7.15;;;;;;;11.95;44.51;99984.00;5060370;28;20111;-77
2022/04/19 12:04:54;;;;;;;13.98;7.40;;;;;;;11.89;44.34;100000.25;5062970;28;20062;-80
2022/04/19 12:07:20;;;;;;;14.07;6.93;;;;;;;11.92;44.41;99999.25;5066413;28;20056;-79
2022/04/19 12:09:46;;;;;;;12.40;7.32;;;;;;;11.94;44.08;99993.06;5080007;28;20516;-81
2022/04/19 12:12:13;;;;;;;11.65;7.75;;;;;;;11.95;43.95;99997.47;5057455;28;20028;-80
2022/04/19 12:14:38;;;;;;;12.68;8.38;;;;;;;11.81;44.31;99998.28;5056074;28;20037;-81